createdAt,value
2022-09-05T00:02:34.932Z,16.43
2022-09-05T00:07:58.897Z,16.25
2022-09-05T00:13:07.165Z,16.31
2022-09-05T00:23:17.593Z,16.30
2022-09-05T00:24:37.159Z,16.15
2022-09-05T00:31:07.719Z,16.03
2022-09-05T00:35:30.761Z,16.16
2022-09-05T00:40:38.604Z,16.20
2022-09-05T00:45:49.000Z,16.23
2022-09-05T00:51:01.857Z,16.19
2022-09-05T00:56:19.740Z,16.08
2022-09-05T01:01:43.039Z,16.08
2022-09-05T01:07:02.785Z,16.15
2022-09-05T01:12:22.609Z,16.16
2022-09-05T01:17:38.385Z,16.17
2022-09-05T01:23:00.652Z,16.21
2022-09-05T01:29:15.698Z,16.29
2022-09-05T01:33:53.987Z,16.42
2022-09-05T01:40:10.526Z,16.52
2022-09-05T01:44:42.454Z,16.54
2022-09-05T01:50:00.729Z,16.54
2022-09-05T01:55:23.435Z,16.51
2022-09-05T02:00:36.444Z,16.53
2022-09-05T02:06:14.309Z,16.49
2022-09-05T02:11:36.060Z,16.35
2022-09-05T02:16:45.719Z,16.27
2022-09-05T02:21:58.713Z,16.25
2022-09-05T02:27:35.857Z,16.27
2022-09-05T02:33:06.378Z,16.16
2022-09-05T02:44:18.281Z,16.04
2022-09-05T02:45:24.502Z,15.96
2022-09-05T02:50:07.033Z,15.93
2022-09-05T02:57:36.694Z,15.94
2022-09-05T03:00:11.537Z,15.94
2022-09-05T03:05:23.657Z,15.97
2022-09-05T03:10:54.128Z,15.97
2022-09-05T03:16:18.315Z,15.83
2022-09-05T03:21:52.012Z,15.76
2022-09-05T03:27:23.693Z,15.62
2022-09-05T03:33:17.782Z,15.64
2022-09-05T03:38:58.901Z,15.41
2022-09-05T03:44:15.904Z,15.30
2022-09-05T03:53:31.033Z,15.27
2022-09-05T03:57:11.961Z,15.26
2022-09-05T04:01:10.777Z,15.15
2022-09-05T04:08:24.160Z,15.05
2022-09-05T04:12:03.455Z,15.04
2022-09-05T04:17:12.070Z,15.04
2022-09-05T04:22:23.786Z,15.02
2022-09-05T04:27:36.252Z,14.96
2022-09-05T04:32:54.654Z,14.92
2022-09-05T04:37:59.501Z,14.84
2022-09-05T04:43:07.522Z,14.77
2022-09-05T04:48:14.965Z,14.67
2022-09-05T04:53:36.635Z,14.68
2022-09-05T05:00:33.801Z,14.64
2022-09-05T05:06:11.395Z,14.64
2022-09-05T05:09:43.222Z,14.63
2022-09-05T05:17:59.918Z,14.55
2022-09-05T05:20:40.497Z,14.53
2022-09-05T05:25:51.562Z,14.63
2022-09-05T05:31:01.569Z,14.75
2022-09-05T05:36:10.105Z,14.83
2022-09-05T05:41:21.053Z,14.84
2022-09-05T05:46:36.364Z,14.88
2022-09-05T05:52:02.103Z,14.99
2022-09-05T05:57:37.109Z,15.22
2022-09-05T06:03:27.027Z,15.42
2022-09-05T06:11:02.335Z,15.60
2022-09-05T06:14:56.050Z,15.80
2022-09-05T06:22:05.781Z,16.00
2022-09-05T06:26:50.099Z,16.09
2022-09-05T06:32:05.237Z,16.20
2022-09-05T06:37:17.299Z,16.30
2022-09-05T06:42:30.636Z,16.32
2022-09-05T06:47:48.055Z,16.41
2022-09-05T06:53:39.319Z,16.52
2022-09-05T06:59:12.040Z,16.67
2022-09-05T07:05:14.600Z,16.85
2022-09-05T07:10:00.377Z,16.96
2022-09-05T07:15:14.345Z,17.12
2022-09-05T07:20:22.698Z,17.21
2022-09-05T07:25:33.144Z,17.24
2022-09-05T07:30:47.496Z,17.30
2022-09-05T07:35:52.589Z,17.35
2022-09-05T07:41:00.632Z,17.51
2022-09-05T07:46:11.775Z,17.65
2022-09-05T07:56:49.196Z,17.76
2022-09-05T07:57:22.310Z,17.86
2022-09-05T08:02:14.596Z,17.99
2022-09-05T08:07:48.121Z,18.09
2022-09-05T08:13:23.044Z,18.22
2022-09-05T08:18:17.938Z,18.35
2022-09-05T08:23:42.521Z,18.43
2022-09-05T08:28:56.454Z,18.60
2022-09-05T08:34:03.777Z,18.81
2022-09-05T08:39:10.338Z,18.95
2022-09-05T08:46:40.509Z,19.04
2022-09-05T08:49:58.837Z,19.23
2022-09-05T08:55:14.492Z,19.41
2022-09-05T09:00:24.161Z,19.54
2022-09-05T09:06:12.003Z,19.71
2022-09-05T09:11:16.950Z,19.90
2022-09-05T09:16:30.881Z,19.99
2022-09-05T09:21:42.113Z,20.12
2022-09-05T09:26:56.687Z,20.23
2022-09-05T09:32:07.685Z,20.33
2022-09-05T09:37:49.970Z,20.47
2022-09-05T09:43:06.368Z,20.68
2022-09-05T09:48:44.227Z,20.81
2022-09-05T09:54:03.870Z,21.01
2022-09-05T09:59:29.344Z,21.08
2022-09-05T10:10:33.220Z,21.17
2022-09-05T10:11:22.496Z,21.39
2022-09-05T10:16:39.778Z,21.49
2022-09-05T10:28:02.199Z,21.85
2022-09-05T10:35:15.177Z,21.99
2022-09-05T10:39:00.918Z,22.08
2022-09-05T10:44:07.340Z,22.18
2022-09-05T10:49:14.468Z,22.42
2022-09-05T10:54:35.609Z,22.54
2022-09-05T11:02:15.833Z,22.71
2022-09-05T11:05:24.615Z,22.77
2022-09-05T11:10:35.069Z,22.83
2022-09-05T11:16:05.037Z,22.97
2022-09-05T11:21:14.545Z,23.26
2022-09-05T11:26:30.659Z,23.51
2022-09-05T11:32:37.078Z,23.58
2022-09-05T11:40:06.814Z,23.71
2022-09-05T11:42:57.749Z,23.90
2022-09-05T11:48:25.056Z,24.23
2022-09-05T11:53:57.342Z,24.44
2022-09-05T11:59:33.445Z,24.66
2022-09-05T12:05:48.494Z,24.77
2022-09-05T12:10:47.116Z,24.78
2022-09-05T12:21:27.141Z,25.12
2022-09-05T12:27:42.468Z,25.22
2022-09-05T12:34:02.726Z,25.20
2022-09-05T12:41:42.381Z,25.32
2022-09-05T12:44:38.392Z,25.48
2022-09-05T12:48:26.449Z,25.66
2022-09-05T12:53:48.825Z,25.82
2022-09-05T13:03:05.296Z,25.96
2022-09-05T13:04:25.328Z,25.95
2022-09-05T13:12:16.326Z,26.15
2022-09-05T13:15:20.049Z,26.22
2022-09-05T13:20:32.490Z,26.41
2022-09-05T13:25:37.268Z,26.64
2022-09-05T13:34:16.188Z,26.74
2022-09-05T13:38:20.158Z,26.84
2022-09-05T13:41:59.394Z,27.02
2022-09-05T13:47:14.758Z,27.11
2022-09-05T13:52:35.602Z,27.21
2022-09-05T13:57:44.329Z,27.49
2022-09-05T14:09:35.268Z,28.04
2022-09-05T14:15:08.175Z,28.30
2022-09-05T14:20:00.047Z,28.63
2022-09-05T14:25:05.367Z,28.85
2022-09-05T14:31:06.045Z,29.08
2022-09-05T14:37:44.167Z,29.33
2022-09-05T14:41:45.742Z,29.71
2022-09-05T14:47:38.689Z,29.86
2022-09-05T15:02:47.706Z,30.21
2022-09-05T15:12:16.059Z,30.10
2022-09-05T15:14:45.972Z,30.47
2022-09-05T15:20:06.609Z,30.20
2022-09-05T15:25:19.221Z,30.43
2022-09-05T15:30:35.158Z,30.68
2022-09-05T15:35:43.380Z,30.83
2022-09-05T15:40:46.208Z,30.96
2022-09-05T15:45:49.873Z,31.02
2022-09-05T15:50:59.020Z,31.34
2022-09-05T15:56:18.725Z,31.05
2022-09-05T16:01:48.592Z,30.73
2022-09-05T16:10:35.221Z,30.76
2022-09-05T16:12:32.077Z,30.37
2022-09-05T16:23:19.108Z,29.65
2022-09-05T16:23:39.346Z,29.35
2022-09-05T16:28:39.413Z,28.96
2022-09-05T16:33:44.378Z,28.48
2022-09-05T16:38:52.589Z,28.02
2022-09-05T16:44:00.273Z,27.60
2022-09-05T16:49:11.676Z,27.36
2022-09-05T16:54:25.434Z,27.30
2022-09-05T16:59:30.933Z,27.15
2022-09-05T17:05:03.649Z,26.94
2022-09-05T17:10:11.743Z,26.75
2022-09-05T17:15:17.985Z,26.60
2022-09-05T17:20:23.202Z,26.47
2022-09-05T17:29:20.505Z,26.32
2022-09-05T17:36:41.361Z,25.94
2022-09-05T17:42:03.476Z,25.78
2022-09-05T17:47:15.190Z,25.61
2022-09-05T17:52:23.339Z,25.43
2022-09-05T17:57:42.054Z,25.28
2022-09-05T18:02:56.115Z,25.03
2022-09-05T18:08:00.211Z,25.03
2022-09-05T18:13:31.813Z,24.89
2022-09-05T18:19:28.101Z,24.79
2022-09-05T18:24:03.264Z,24.72
2022-09-05T18:29:16.997Z,24.59
2022-09-05T18:35:13.223Z,24.49
2022-09-05T18:40:37.084Z,24.41
2022-09-05T18:45:52.674Z,24.36
2022-09-05T18:51:13.822Z,24.28
2022-09-05T18:56:27.849Z,24.21
2022-09-05T19:01:38.042Z,24.16
2022-09-05T19:06:46.560Z,24.03
2022-09-05T19:11:53.916Z,23.86
2022-09-05T19:17:04.194Z,23.66
2022-09-05T19:23:08.294Z,23.50
2022-09-05T19:30:25.031Z,23.46
2022-09-05T19:36:54.504Z,23.41
2022-09-05T19:38:31.147Z,23.46
2022-09-05T19:47:40.240Z,23.44
2022-09-05T19:49:25.825Z,23.35
2022-09-05T19:54:30.627Z,23.28
2022-09-05T19:59:35.178Z,23.22
2022-09-05T20:04:48.289Z,23.18
2022-09-05T20:09:57.821Z,23.00
2022-09-05T20:15:19.999Z,22.87
2022-09-05T20:20:26.308Z,22.73
2022-09-05T20:25:36.544Z,22.63
2022-09-05T20:30:44.016Z,22.49
2022-09-05T20:40:05.488Z,22.38
2022-09-05T20:43:27.335Z,22.30
2022-09-05T20:49:00.843Z,22.15
2022-09-05T20:54:20.152Z,22.22
2022-09-05T20:57:45.006Z,22.15
2022-09-05T21:02:54.622Z,22.01
2022-09-05T21:08:32.082Z,21.85
2022-09-05T21:13:37.669Z,21.77
2022-09-05T21:18:55.102Z,21.72
2022-09-05T21:24:15.810Z,21.74
2022-09-05T21:29:32.542Z,21.71
2022-09-05T21:34:45.172Z,21.44
2022-09-05T21:39:59.436Z,21.25
2022-09-05T21:47:49.493Z,21.15
2022-09-05T21:50:31.481Z,21.09
2022-09-05T21:59:17.168Z,21.12
2022-09-05T22:00:59.276Z,21.08
2022-09-05T22:06:07.148Z,21.04
2022-09-05T22:11:13.912Z,20.99
2022-09-05T22:16:17.062Z,20.95
2022-09-05T22:21:32.938Z,20.96
2022-09-05T22:27:10.765Z,20.81
2022-09-05T22:32:08.710Z,20.67
2022-09-05T22:37:11.687Z,20.58
2022-09-05T22:42:15.924Z,20.52
2022-09-05T22:47:19.909Z,20.49
2022-09-05T22:52:22.721Z,20.50
2022-09-05T22:57:26.905Z,20.50
2022-09-05T23:02:29.648Z,20.48
2022-09-05T23:07:32.896Z,20.42
2022-09-05T23:12:40.020Z,20.37
2022-09-05T23:17:42.913Z,20.24
2022-09-05T23:22:45.684Z,19.98
2022-09-05T23:27:50.528Z,19.85
2022-09-05T23:32:53.846Z,19.76
2022-09-05T23:37:56.604Z,19.63
2022-09-05T23:43:01.266Z,19.45
2022-09-05T23:48:04.359Z,19.41
2022-09-05T23:53:07.113Z,19.36
2022-09-05T23:58:11.893Z,19.33
